createdAt,value
2019-03-09T00:01:27.944Z,0.80
2019-03-09T00:03:57.385Z,1.00
2019-03-09T00:06:26.790Z,0.80
2019-03-09T00:08:58.377Z,1.03
2019-03-09T00:11:27.943Z,1.10
2019-03-09T00:13:57.290Z,0.73
2019-03-09T00:16:29.581Z,1.00
2019-03-09T00:18:58.943Z,1.00
2019-03-09T00:21:28.179Z,0.87
2019-03-09T00:24:17.509Z,0.90
2019-03-09T00:27:11.972Z,1.20
2019-03-09T00:29:58.913Z,1.20
2019-03-09T00:32:28.413Z,1.27
2019-03-09T00:34:57.721Z,0.90
2019-03-09T00:37:27.066Z,1.10
2019-03-09T00:39:56.259Z,1.10
2019-03-09T00:42:25.595Z,0.90
2019-03-09T00:44:55.096Z,0.70
2019-03-09T00:47:24.556Z,1.20
2019-03-09T00:49:54.101Z,0.87
2019-03-09T00:52:23.705Z,0.80
2019-03-09T00:54:57.445Z,0.80
2019-03-09T00:57:26.884Z,1.00
2019-03-09T00:59:58.051Z,0.77
2019-03-09T01:02:27.389Z,1.17
2019-03-09T01:04:56.878Z,1.17
2019-03-09T01:07:26.536Z,0.90
2019-03-09T01:09:55.816Z,1.20
2019-03-09T01:12:28.328Z,0.90
2019-03-09T01:14:57.836Z,1.03
2019-03-09T01:17:27.299Z,1.00
2019-03-09T01:19:56.804Z,1.23
2019-03-09T01:22:25.990Z,1.20
2019-03-09T01:24:55.218Z,1.17
2019-03-09T01:27:24.390Z,1.00
2019-03-09T01:29:53.749Z,1.40
2019-03-09T01:32:22.944Z,1.17
2019-03-09T01:34:52.192Z,1.03
2019-03-09T01:37:21.702Z,0.80
2019-03-09T01:39:50.928Z,0.90
2019-03-09T01:42:20.404Z,1.13
2019-03-09T01:44:49.656Z,0.90
2019-03-09T01:47:18.868Z,1.10
2019-03-09T01:49:48.103Z,1.23
2019-03-09T01:52:17.298Z,1.03
2019-03-09T01:54:46.523Z,1.10
2019-03-09T01:57:15.695Z,1.53
2019-03-09T01:59:44.921Z,1.17
2019-03-09T02:02:14.093Z,0.80
2019-03-09T02:04:43.876Z,1.03
2019-03-09T02:07:13.052Z,1.20
2019-03-09T02:09:42.239Z,1.20
2019-03-09T02:12:11.529Z,1.40
2019-03-09T02:14:40.708Z,1.00
2019-03-09T02:17:10.218Z,1.10
2019-03-09T02:19:39.676Z,1.40
2019-03-09T02:22:08.920Z,1.37
2019-03-09T02:24:38.108Z,1.03
2019-03-09T02:27:07.379Z,1.20
2019-03-09T02:29:36.561Z,1.00
2019-03-09T02:32:05.739Z,1.10
2019-03-09T02:34:34.973Z,1.50
2019-03-09T02:37:04.150Z,1.30
2019-03-09T02:39:44.035Z,0.90
2019-03-09T02:42:13.229Z,1.10
2019-03-09T02:44:42.459Z,0.97
2019-03-09T02:47:11.633Z,1.30
2019-03-09T02:49:40.872Z,1.00
2019-03-09T02:52:10.077Z,1.00
2019-03-09T02:54:39.323Z,0.87
2019-03-09T02:57:08.510Z,1.00
2019-03-09T02:59:38.631Z,0.80
2019-03-09T03:02:14.645Z,0.80
2019-03-09T03:04:44.133Z,1.00
2019-03-09T03:07:13.299Z,0.90
2019-03-09T03:09:42.542Z,0.97
2019-03-09T03:12:11.772Z,0.60
2019-03-09T03:14:41.015Z,0.90
2019-03-09T03:17:10.188Z,0.70
2019-03-09T03:19:39.426Z,1.30
2019-03-09T03:22:08.629Z,0.63
2019-03-09T03:24:37.852Z,1.00
2019-03-09T03:27:07.049Z,0.80
2019-03-09T03:29:36.295Z,0.70
2019-03-09T03:32:05.478Z,0.70
2019-03-09T03:34:34.655Z,0.63
2019-03-09T03:37:03.943Z,0.70
2019-03-09T03:39:33.104Z,0.97
2019-03-09T03:42:02.349Z,0.80
2019-03-09T03:44:33.170Z,0.80
2019-03-09T03:47:02.405Z,0.80
2019-03-09T03:49:31.580Z,0.90
2019-03-09T03:52:00.863Z,0.90
2019-03-09T03:54:30.036Z,1.00
2019-03-09T03:57:00.228Z,0.80
2019-03-09T03:59:29.407Z,1.00
2019-03-09T04:01:58.580Z,0.80
2019-03-09T04:04:27.811Z,1.20
2019-03-09T04:06:57.094Z,1.17
2019-03-09T04:09:26.736Z,1.00
2019-03-09T04:11:55.956Z,1.30
2019-03-09T04:14:25.185Z,1.30
2019-03-09T04:16:54.366Z,1.27
2019-03-09T04:19:23.603Z,1.27
2019-03-09T04:21:52.773Z,1.30
2019-03-09T04:24:22.004Z,1.23
2019-03-09T04:26:51.165Z,1.30
2019-03-09T04:29:20.410Z,1.17
2019-03-09T04:31:49.599Z,1.10
2019-03-09T04:34:18.827Z,0.90
2019-03-09T04:36:49.720Z,1.00
2019-03-09T04:39:18.942Z,1.00
2019-03-09T04:41:53.259Z,1.17
2019-03-09T04:44:22.498Z,1.20
2019-03-09T04:46:51.669Z,1.20
2019-03-09T04:49:20.904Z,1.13
2019-03-09T04:51:50.097Z,1.70
2019-03-09T04:54:19.398Z,1.27
2019-03-09T04:56:48.630Z,1.30
2019-03-09T04:59:17.818Z,1.10
2019-03-09T05:01:47.041Z,1.13
2019-03-09T05:04:41.330Z,1.30
2019-03-09T05:07:11.326Z,1.20
2019-03-09T05:10:01.435Z,1.40
2019-03-09T05:12:31.047Z,1.10
2019-03-09T05:15:00.316Z,1.10
2019-03-09T05:17:29.536Z,1.30
2019-03-09T05:19:58.968Z,1.33
2019-03-09T05:22:28.478Z,1.30
2019-03-09T05:24:57.666Z,1.17
2019-03-09T05:27:26.884Z,1.40
2019-03-09T05:29:56.074Z,1.50
2019-03-09T05:32:25.298Z,1.87
2019-03-09T05:34:54.473Z,1.90
2019-03-09T05:37:23.707Z,2.17
2019-03-09T05:39:52.882Z,1.97
2019-03-09T05:42:22.141Z,2.13
2019-03-09T05:44:51.327Z,2.20
2019-03-09T05:47:20.523Z,2.60
2019-03-09T05:49:49.959Z,2.53
2019-03-09T05:52:49.108Z,2.30
2019-03-09T05:55:19.777Z,2.40
2019-03-09T05:57:49.253Z,2.40
2019-03-09T06:00:18.548Z,2.43
2019-03-09T06:02:47.723Z,2.30
2019-03-09T06:06:10.077Z,2.13
2019-03-09T06:08:39.329Z,1.93
2019-03-09T06:11:08.581Z,1.93
2019-03-09T06:13:37.817Z,1.80
2019-03-09T06:16:07.407Z,1.90
2019-03-09T06:18:36.644Z,1.60
2019-03-09T06:21:05.857Z,1.60
2019-03-09T06:23:35.191Z,1.83
2019-03-09T06:26:04.494Z,1.50
2019-03-09T06:28:33.664Z,1.23
2019-03-09T06:31:02.913Z,1.43
2019-03-09T06:33:33.484Z,1.13
2019-03-09T06:36:52.755Z,1.30
2019-03-09T06:39:33.815Z,1.50
2019-03-09T06:42:12.445Z,1.37
2019-03-09T06:44:41.629Z,1.50
2019-03-09T06:47:10.878Z,1.20
2019-03-09T06:49:40.078Z,1.20
2019-03-09T06:52:09.336Z,1.83
2019-03-09T06:54:38.508Z,1.20
2019-03-09T06:57:13.813Z,1.30
2019-03-09T06:59:38.640Z,1.20
2019-03-09T07:02:07.822Z,1.10
2019-03-09T07:04:37.050Z,1.20
2019-03-09T07:07:06.246Z,1.07
2019-03-09T07:09:35.488Z,1.37
2019-03-09T07:12:04.730Z,1.40
2019-03-09T07:15:16.840Z,1.30
2019-03-09T07:17:46.159Z,1.67
2019-03-09T07:20:15.654Z,1.30
2019-03-09T07:22:44.835Z,1.40
2019-03-09T07:25:14.185Z,1.33
2019-03-09T07:27:43.386Z,1.33
2019-03-09T07:30:15.109Z,1.50
2019-03-09T07:32:44.294Z,1.77
2019-03-09T07:35:13.542Z,1.37
2019-03-09T07:37:42.713Z,1.00
2019-03-09T07:40:12.064Z,1.30
2019-03-09T07:42:41.255Z,1.50
2019-03-09T07:45:12.240Z,1.57
2019-03-09T07:47:41.433Z,1.43
2019-03-09T07:50:11.830Z,1.40
2019-03-09T07:52:40.999Z,1.53
2019-03-09T07:55:14.252Z,1.20
2019-03-09T07:57:43.593Z,1.17
2019-03-09T08:00:14.692Z,1.70
2019-03-09T08:02:43.939Z,1.20
2019-03-09T08:05:13.336Z,1.23
2019-03-09T08:07:42.858Z,1.20
2019-03-09T08:10:16.574Z,1.20
2019-03-09T08:12:45.840Z,1.53
2019-03-09T08:15:16.258Z,1.13
2019-03-09T08:17:45.614Z,1.20
2019-03-09T08:20:15.140Z,1.47
2019-03-09T08:22:44.499Z,1.37
2019-03-09T08:25:14.291Z,1.20
2019-03-09T08:27:43.563Z,1.30
2019-03-09T08:30:17.772Z,1.13
2019-03-09T08:32:47.080Z,1.10
2019-03-09T08:35:17.695Z,1.00
2019-03-09T08:37:46.987Z,1.10
2019-03-09T08:40:16.560Z,1.00
2019-03-09T08:42:45.747Z,1.10
2019-03-09T08:45:16.764Z,1.00
2019-03-09T08:47:52.216Z,1.13
2019-03-09T08:50:18.535Z,1.10
2019-03-09T08:52:47.721Z,1.40
2019-03-09T08:55:18.091Z,1.10
2019-03-09T08:57:47.546Z,1.20
2019-03-09T09:00:19.231Z,1.00
2019-03-09T09:02:48.411Z,0.90
2019-03-09T09:05:17.648Z,0.97
2019-03-09T09:07:46.833Z,0.93
2019-03-09T09:10:16.187Z,0.87
2019-03-09T09:12:45.822Z,0.90
2019-03-09T09:15:15.298Z,1.00
2019-03-09T09:17:44.574Z,1.10
2019-03-09T09:20:15.777Z,1.10
2019-03-09T09:22:45.010Z,0.80
2019-03-09T09:25:14.477Z,0.80
2019-03-09T09:27:43.708Z,1.17
2019-03-09T09:30:23.925Z,0.90
2019-03-09T09:32:53.174Z,0.70
2019-03-09T09:35:22.818Z,1.30
2019-03-09T09:37:52.287Z,1.00
2019-03-09T09:40:22.677Z,0.80
2019-03-09T09:42:52.664Z,0.70
2019-03-09T09:45:22.552Z,0.50
2019-03-09T09:47:52.651Z,0.70
2019-03-09T09:50:23.337Z,0.60
2019-03-09T09:52:56.521Z,0.70
2019-03-09T09:55:26.648Z,0.70
2019-03-09T09:57:56.301Z,0.50
2019-03-09T10:00:26.199Z,0.60
2019-03-09T10:02:55.412Z,0.40
2019-03-09T10:05:25.136Z,0.60
2019-03-09T10:07:54.326Z,0.63
2019-03-09T10:10:29.739Z,0.50
2019-03-09T10:12:58.881Z,0.60
2019-03-09T10:15:34.639Z,0.70
2019-03-09T10:18:07.673Z,0.60
2019-03-09T10:20:37.328Z,0.77
2019-03-09T10:23:06.534Z,0.70
2019-03-09T10:25:35.831Z,0.70
2019-03-09T10:28:05.035Z,0.40
2019-03-09T10:30:34.248Z,0.50
2019-03-09T10:33:03.505Z,0.60
2019-03-09T10:35:32.734Z,0.50
2019-03-09T10:38:01.976Z,0.47
2019-03-09T10:40:31.165Z,0.60
2019-03-09T10:43:00.536Z,0.50
2019-03-09T10:45:29.728Z,0.53
2019-03-09T10:47:59.042Z,0.47
2019-03-09T10:50:28.639Z,0.50
2019-03-09T10:52:57.897Z,0.50
2019-03-09T10:55:27.152Z,0.70
2019-03-09T10:57:59.479Z,0.60
2019-03-09T11:00:33.098Z,0.43
2019-03-09T11:03:02.321Z,0.50
2019-03-09T11:05:31.779Z,0.60
2019-03-09T11:08:00.999Z,0.90
2019-03-09T11:10:30.233Z,0.67
2019-03-09T11:12:59.499Z,0.57
2019-03-09T11:15:29.891Z,0.40
2019-03-09T11:17:59.048Z,0.47
2019-03-09T11:20:28.414Z,0.50
2019-03-09T11:22:57.735Z,0.60
2019-03-09T11:25:27.048Z,0.70
2019-03-09T11:27:57.750Z,0.70
2019-03-09T11:30:27.200Z,0.80
2019-03-09T11:32:56.484Z,0.50
2019-03-09T11:35:26.053Z,0.40
2019-03-09T11:37:55.516Z,0.60
2019-03-09T11:40:24.848Z,0.40
2019-03-09T11:42:54.260Z,0.50
2019-03-09T11:45:23.709Z,0.50
2019-03-09T11:47:54.186Z,0.50
2019-03-09T11:50:23.372Z,0.40
2019-03-09T11:52:52.688Z,0.50
2019-03-09T11:55:21.833Z,0.53
2019-03-09T11:57:51.389Z,0.47
2019-03-09T12:00:26.825Z,0.60
2019-03-09T12:02:56.364Z,0.50
2019-03-09T12:05:25.584Z,0.60
2019-03-09T12:07:57.619Z,0.73
2019-03-09T12:10:26.898Z,0.87
2019-03-09T12:12:56.306Z,0.60
2019-03-09T12:15:27.291Z,0.70
2019-03-09T12:17:58.339Z,0.57
2019-03-09T12:20:29.429Z,0.80
2019-03-09T12:23:10.838Z,0.53
2019-03-09T12:25:40.073Z,0.70
2019-03-09T12:28:12.093Z,0.70
2019-03-09T12:30:41.488Z,0.50
2019-03-09T12:33:10.931Z,0.80
2019-03-09T12:35:40.186Z,0.63
2019-03-09T12:38:09.409Z,0.80
2019-03-09T12:40:38.689Z,0.70
2019-03-09T12:43:07.882Z,0.60
2019-03-09T12:45:37.160Z,0.57
2019-03-09T12:48:06.357Z,0.90
2019-03-09T12:50:35.684Z,0.70
2019-03-09T12:53:04.904Z,0.60
2019-03-09T12:55:34.090Z,0.70
2019-03-09T12:58:03.329Z,0.53
2019-03-09T13:00:32.568Z,0.50
2019-03-09T13:03:01.765Z,0.60
2019-03-09T13:05:31.132Z,0.50
2019-03-09T13:08:00.426Z,0.50
2019-03-09T13:10:29.695Z,0.47
2019-03-09T13:12:59.008Z,0.70
2019-03-09T13:15:28.245Z,0.60
2019-03-09T13:17:57.480Z,0.60
2019-03-09T13:20:26.677Z,0.90
2019-03-09T13:22:55.935Z,0.60
2019-03-09T13:25:25.120Z,0.50
2019-03-09T13:27:54.614Z,0.60
2019-03-09T13:30:23.864Z,0.70
2019-03-09T13:32:53.152Z,0.40
2019-03-09T13:35:23.568Z,0.30
2019-03-09T13:37:52.801Z,0.70
2019-03-09T13:40:22.081Z,0.60
2019-03-09T13:42:51.351Z,0.50
2019-03-09T13:45:20.885Z,0.60
2019-03-09T13:47:50.117Z,0.73
2019-03-09T13:50:19.347Z,1.50
2019-03-09T13:52:48.611Z,0.60
2019-03-09T13:55:17.867Z,0.90
2019-03-09T13:57:47.098Z,0.80
2019-03-09T14:00:16.444Z,0.80
2019-03-09T14:02:45.681Z,0.97
2019-03-09T14:05:15.257Z,0.87
2019-03-09T14:07:44.453Z,0.90
2019-03-09T14:10:13.781Z,0.97
2019-03-09T14:12:43.022Z,0.70
2019-03-09T14:15:13.698Z,0.73
2019-03-09T14:17:42.951Z,0.70
2019-03-09T14:20:12.231Z,1.00
2019-03-09T14:22:41.704Z,0.80
2019-03-09T14:25:11.144Z,0.70
2019-03-09T14:27:40.360Z,1.23
2019-03-09T14:30:11.532Z,1.27
2019-03-09T14:32:40.746Z,0.90
2019-03-09T14:35:10.010Z,0.90
2019-03-09T14:37:39.832Z,0.80
2019-03-09T14:40:09.747Z,0.90
2019-03-09T14:42:39.306Z,0.83
2019-03-09T14:45:11.734Z,0.93
2019-03-09T14:47:40.967Z,0.90
2019-03-09T14:50:10.384Z,0.80
2019-03-09T14:52:39.925Z,0.87
2019-03-09T14:55:09.176Z,0.90
2019-03-09T14:57:38.434Z,0.70
2019-03-09T15:00:10.877Z,0.70
2019-03-09T15:02:42.282Z,0.80
2019-03-09T15:05:11.572Z,0.90
2019-03-09T15:07:41.124Z,0.77
2019-03-09T15:10:14.695Z,0.80
2019-03-09T15:12:44.048Z,0.80
2019-03-09T15:15:15.754Z,0.70
2019-03-09T15:17:44.733Z,1.00
2019-03-09T15:20:14.763Z,0.70
2019-03-09T15:22:44.085Z,0.83
2019-03-09T15:25:13.497Z,0.80
2019-03-09T15:27:42.999Z,0.80
2019-03-09T15:30:13.810Z,0.50
2019-03-09T15:32:45.067Z,0.37
2019-03-09T15:35:16.205Z,0.60
2019-03-09T15:37:45.441Z,0.60
2019-03-09T15:40:19.223Z,0.50
2019-03-09T15:42:48.482Z,0.50
2019-03-09T15:45:19.631Z,0.80
2019-03-09T15:47:49.373Z,0.70
2019-03-09T15:50:21.577Z,0.70
2019-03-09T15:52:50.906Z,0.70
2019-03-09T15:55:20.219Z,0.70
2019-03-09T15:57:49.529Z,0.63
2019-03-09T16:00:19.720Z,0.73
2019-03-09T16:02:57.753Z,0.67
2019-03-09T16:05:34.390Z,0.70
2019-03-09T16:08:03.556Z,0.50
2019-03-09T16:10:32.783Z,0.53
2019-03-09T16:13:02.041Z,0.87
2019-03-09T16:15:32.532Z,0.80
2019-03-09T16:18:01.657Z,0.70
2019-03-09T16:20:31.306Z,1.07
2019-03-09T16:23:03.549Z,0.60
2019-03-09T16:25:32.839Z,0.73
2019-03-09T16:28:02.056Z,0.70
2019-03-09T16:30:31.324Z,0.70
2019-03-09T16:33:00.663Z,0.70
2019-03-09T16:35:29.908Z,0.70
2019-03-09T16:37:59.303Z,0.70
2019-03-09T16:40:28.896Z,0.53
2019-03-09T16:43:00.464Z,1.00
2019-03-09T16:45:30.075Z,0.57
2019-03-09T16:47:59.620Z,0.70
2019-03-09T16:50:31.819Z,0.70
2019-03-09T16:53:04.139Z,0.60
2019-03-09T16:55:36.136Z,0.97
2019-03-09T16:58:05.377Z,0.90
2019-03-09T17:00:34.578Z,0.70
2019-03-09T17:03:03.849Z,0.80
2019-03-09T17:05:33.033Z,0.70
2019-03-09T17:08:03.204Z,0.60
2019-03-09T17:10:32.623Z,0.67
2019-03-09T17:13:03.210Z,0.70
2019-03-09T17:15:32.590Z,0.70
2019-03-09T17:18:02.148Z,0.70
2019-03-09T17:20:31.371Z,0.43
2019-03-09T17:23:01.097Z,0.70
2019-03-09T17:25:30.278Z,0.30
2019-03-09T17:27:59.811Z,0.50
2019-03-09T17:30:28.994Z,0.60
2019-03-09T17:32:58.504Z,0.50
2019-03-09T17:35:32.861Z,0.40
2019-03-09T17:38:02.298Z,0.30
2019-03-09T17:40:31.498Z,0.40
2019-03-09T17:43:00.681Z,0.40
2019-03-09T17:45:30.027Z,0.27
2019-03-09T17:47:59.483Z,0.30
2019-03-09T17:50:28.905Z,0.40
2019-03-09T17:52:58.201Z,0.37
2019-03-09T17:55:27.491Z,0.30
2019-03-09T17:57:56.779Z,0.30
2019-03-09T18:00:26.729Z,0.40
2019-03-09T18:02:56.404Z,0.30
2019-03-09T18:05:25.716Z,0.40
2019-03-09T18:07:55.495Z,0.30
2019-03-09T18:10:29.193Z,0.43
2019-03-09T18:12:58.448Z,0.40
2019-03-09T18:15:27.758Z,0.47
2019-03-09T18:17:56.915Z,0.30
2019-03-09T18:20:26.424Z,0.30
2019-03-09T18:22:55.611Z,0.60
2019-03-09T18:25:24.849Z,0.43
2019-03-09T18:27:54.092Z,0.40
2019-03-09T18:30:23.373Z,0.50
2019-03-09T18:32:52.572Z,0.50
2019-03-09T18:35:21.818Z,0.30
2019-03-09T18:37:51.517Z,0.40
2019-03-09T18:40:21.088Z,0.30
2019-03-09T18:42:50.358Z,0.47
2019-03-09T18:45:19.667Z,0.30
2019-03-09T18:47:49.153Z,0.30
2019-03-09T18:50:18.776Z,0.50
2019-03-09T18:52:48.583Z,0.50
2019-03-09T18:55:17.821Z,0.30
2019-03-09T18:57:47.079Z,0.40
2019-03-09T19:00:17.664Z,0.40
2019-03-09T19:02:47.357Z,0.57
2019-03-09T19:05:16.712Z,0.50
2019-03-09T19:07:46.522Z,0.30
2019-03-09T19:10:15.203Z,0.70
2019-03-09T19:12:44.443Z,0.50
2019-03-09T19:15:14.007Z,0.40
2019-03-09T19:17:43.249Z,0.40
2019-03-09T19:20:13.542Z,0.40
2019-03-09T19:22:42.752Z,0.50
2019-03-09T19:25:12.271Z,0.40
2019-03-09T19:27:41.874Z,0.50
2019-03-09T19:30:12.965Z,1.00
2019-03-09T19:32:42.456Z,0.90
2019-03-09T19:35:11.746Z,1.10
2019-03-09T19:37:40.941Z,1.00
2019-03-09T19:40:14.431Z,0.80
2019-03-09T19:42:43.628Z,1.20
2019-03-09T19:45:13.613Z,1.30
2019-03-09T19:47:43.506Z,1.43
2019-03-09T19:50:17.346Z,1.00
2019-03-09T19:52:46.687Z,0.87
2019-03-09T19:55:16.711Z,0.90
2019-03-09T19:57:47.388Z,1.20
2019-03-09T20:00:18.077Z,0.80
2019-03-09T20:02:51.823Z,1.00
2019-03-09T20:05:22.872Z,1.13
2019-03-09T20:07:53.502Z,1.10
2019-03-09T20:10:30.097Z,1.37
2019-03-09T20:13:02.557Z,1.30
2019-03-09T20:15:32.333Z,1.20
2019-03-09T20:18:02.127Z,1.50
2019-03-09T20:20:50.530Z,1.40
2019-03-09T20:23:19.825Z,1.27
2019-03-09T20:25:50.651Z,1.20
2019-03-09T20:28:19.992Z,1.07
2019-03-09T20:30:49.296Z,1.67
2019-03-09T20:33:19.103Z,1.17
2019-03-09T20:35:52.353Z,1.40
2019-03-09T20:38:21.980Z,1.30
2019-03-09T20:40:54.163Z,1.27
2019-03-09T20:43:25.525Z,1.30
2019-03-09T20:45:55.037Z,1.40
2019-03-09T20:48:24.411Z,1.50
2019-03-09T20:50:53.654Z,1.20
2019-03-09T20:53:24.750Z,1.10
2019-03-09T20:55:54.259Z,1.20
2019-03-09T20:58:23.578Z,1.00
2019-03-09T21:00:52.857Z,1.53
2019-03-09T21:03:23.015Z,0.90
2019-03-09T21:05:53.599Z,1.10
2019-03-09T21:08:23.069Z,0.87
2019-03-09T21:10:52.326Z,0.70
2019-03-09T21:13:23.000Z,0.80
2019-03-09T21:15:53.684Z,0.80
2019-03-09T21:18:43.977Z,0.70
2019-03-09T21:21:10.859Z,0.50
2019-03-09T21:23:40.256Z,0.70
2019-03-09T21:26:09.634Z,1.00
2019-03-09T21:28:38.820Z,0.70
2019-03-09T21:31:08.068Z,0.70
2019-03-09T21:33:40.149Z,0.67
2019-03-09T21:36:09.547Z,0.50
2019-03-09T21:38:40.783Z,0.60
2019-03-09T21:41:10.153Z,0.50
2019-03-09T21:43:39.474Z,0.63
2019-03-09T21:46:09.892Z,0.63
2019-03-09T21:48:39.223Z,0.53
2019-03-09T21:51:08.423Z,0.53
2019-03-09T21:53:40.122Z,0.70
2019-03-09T21:56:09.376Z,0.40
2019-03-09T21:58:38.699Z,0.60
2019-03-09T22:01:08.227Z,0.70
2019-03-09T22:03:39.642Z,0.70
2019-03-09T22:06:09.357Z,0.40
2019-03-09T22:08:45.975Z,0.50
2019-03-09T22:11:12.645Z,0.43
2019-03-09T22:13:42.083Z,0.50
2019-03-09T22:16:13.945Z,0.40
2019-03-09T22:18:45.769Z,0.50
2019-03-09T22:21:14.988Z,0.60
2019-03-09T22:23:44.536Z,0.60
2019-03-09T22:26:14.028Z,0.40
2019-03-09T22:28:43.557Z,0.53
2019-03-09T22:31:12.778Z,0.30
2019-03-09T22:33:42.069Z,0.20
2019-03-09T22:36:11.703Z,0.43
2019-03-09T22:38:41.078Z,0.27
2019-03-09T22:41:10.281Z,0.40
2019-03-09T22:43:39.535Z,0.40
2019-03-09T22:46:09.510Z,0.40
2019-03-09T22:48:38.848Z,0.50
2019-03-09T22:51:08.264Z,0.40
2019-03-09T22:53:37.440Z,0.30
2019-03-09T22:56:06.675Z,0.40
2019-03-09T22:58:35.886Z,0.43
2019-03-09T23:01:05.346Z,0.30
2019-03-09T23:03:34.941Z,0.40
2019-03-09T23:06:04.586Z,0.40
2019-03-09T23:08:33.962Z,0.27
2019-03-09T23:11:03.329Z,0.40
2019-03-09T23:13:32.954Z,0.30
2019-03-09T23:16:02.362Z,0.37
2019-03-09T23:18:31.722Z,0.40
2019-03-09T23:21:01.630Z,0.40
2019-03-09T23:23:30.881Z,0.30
2019-03-09T23:26:00.157Z,0.30
2019-03-09T23:28:42.002Z,0.30
2019-03-09T23:31:11.247Z,0.40
2019-03-09T23:33:40.705Z,0.60
2019-03-09T23:36:10.254Z,0.27
2019-03-09T23:38:39.431Z,0.43
2019-03-09T23:41:08.610Z,0.50
2019-03-09T23:43:38.152Z,0.40
2019-03-09T23:46:07.343Z,0.40
2019-03-09T23:48:36.837Z,0.47
2019-03-09T23:51:06.036Z,0.60
2019-03-09T23:53:35.280Z,0.43
2019-03-09T23:56:04.515Z,0.40
2019-03-09T23:58:33.759Z,0.40
